createdAt,value
2023-02-11T00:01:07.966Z,18.33
2023-02-11T00:03:35.942Z,18.07
2023-02-11T00:06:06.817Z,19.42
2023-02-11T00:08:34.678Z,18.65
2023-02-11T00:11:03.763Z,17.85
2023-02-11T00:13:32.120Z,18.90
2023-02-11T00:15:59.802Z,19.40
2023-02-11T00:18:27.436Z,19.95
2023-02-11T00:20:55.686Z,20.92
2023-02-11T00:23:23.555Z,18.67
2023-02-11T00:25:51.753Z,18.65
2023-02-11T00:28:21.287Z,17.77
2023-02-11T00:30:55.723Z,17.52
2023-02-11T00:33:23.551Z,16.77
2023-02-11T00:35:52.397Z,15.23
2023-02-11T00:38:20.225Z,15.55
2023-02-11T00:40:48.124Z,15.13
2023-02-11T00:43:16.582Z,15.45
2023-02-11T00:45:45.951Z,16.75
2023-02-11T00:48:14.190Z,16.83
2023-02-11T00:50:42.219Z,20.10
2023-02-11T00:53:09.907Z,21.33
2023-02-11T00:55:37.984Z,17.42
2023-02-11T00:58:06.212Z,16.05
2023-02-11T01:00:35.015Z,13.35
2023-02-11T01:03:04.300Z,12.52
2023-02-11T01:05:32.194Z,12.97
2023-02-11T01:08:00.185Z,13.10
2023-02-11T01:10:28.778Z,14.80
2023-02-11T01:12:56.883Z,13.55
2023-02-11T01:15:24.825Z,13.15
2023-02-11T01:17:52.725Z,12.73
2023-02-11T01:20:24.339Z,12.82
2023-02-11T01:22:52.636Z,13.90
2023-02-11T01:25:20.445Z,14.82
2023-02-11T01:27:48.264Z,14.25
2023-02-11T01:30:16.331Z,13.03
2023-02-11T01:32:44.202Z,12.55
2023-02-11T01:35:11.882Z,12.40
2023-02-11T01:37:41.045Z,14.55
2023-02-11T01:40:14.248Z,12.23
2023-02-11T01:42:42.520Z,14.20
2023-02-11T01:45:50.701Z,14.18
2023-02-11T01:48:22.625Z,14.00
2023-02-11T01:50:54.235Z,14.38
2023-02-11T01:53:41.878Z,14.57
2023-02-11T01:56:33.234Z,13.40
2023-02-11T01:59:06.213Z,15.10
2023-02-11T02:01:36.506Z,14.50
2023-02-11T02:04:05.948Z,14.85
2023-02-11T02:06:37.661Z,14.65
2023-02-11T02:09:10.641Z,14.50
2023-02-11T02:11:38.979Z,14.48
2023-02-11T02:14:07.239Z,15.68
2023-02-11T02:16:36.889Z,17.73
2023-02-11T02:19:27.167Z,14.95
2023-02-11T02:22:30.972Z,14.87
2023-02-11T02:25:19.740Z,13.80
2023-02-11T02:27:55.131Z,13.75
2023-02-11T02:30:47.673Z,14.40
2023-02-11T02:33:25.775Z,14.10
2023-02-11T02:36:03.790Z,15.83
2023-02-11T02:38:35.464Z,14.60
2023-02-11T02:41:05.745Z,13.30
2023-02-11T02:43:34.749Z,13.52
2023-02-11T02:46:15.945Z,13.90
2023-02-11T02:48:45.826Z,14.73
2023-02-11T02:51:27.261Z,14.32
2023-02-11T02:54:06.992Z,15.23
2023-02-11T02:56:41.719Z,14.35
2023-02-11T02:59:29.613Z,16.05
2023-02-11T03:02:07.681Z,13.93
2023-02-11T03:08:26.376Z,13.52
2023-02-11T03:10:56.481Z,13.48
2023-02-11T03:13:32.088Z,14.43
2023-02-11T03:16:03.201Z,14.43
2023-02-11T03:18:34.027Z,14.48
2023-02-11T03:21:03.676Z,14.50
2023-02-11T03:23:38.471Z,14.10
2023-02-11T03:26:12.713Z,13.95
2023-02-11T03:28:46.723Z,14.53
2023-02-11T03:31:21.374Z,14.55
2023-02-11T03:33:55.340Z,12.07
2023-02-11T03:36:27.921Z,13.93
2023-02-11T03:38:59.565Z,14.40
2023-02-11T03:41:27.370Z,14.73
2023-02-11T03:43:58.361Z,13.63
2023-02-11T03:46:31.733Z,13.73
2023-02-11T03:49:05.173Z,13.70
2023-02-11T03:51:34.186Z,14.65
2023-02-11T03:54:06.783Z,13.83
2023-02-11T03:56:39.011Z,12.98
2023-02-11T03:59:06.625Z,14.23
2023-02-11T04:01:34.664Z,14.15
2023-02-11T04:04:02.619Z,20.98
2023-02-11T04:06:30.215Z,14.80
2023-02-11T04:08:57.940Z,14.20
2023-02-11T04:11:26.867Z,14.77
2023-02-11T04:13:54.904Z,13.60
2023-02-11T04:16:22.757Z,17.02
2023-02-11T04:18:50.570Z,15.03
2023-02-11T04:21:18.573Z,13.75
2023-02-11T04:23:46.569Z,19.98
2023-02-11T04:26:14.390Z,17.27
2023-02-11T04:28:43.326Z,17.27
2023-02-11T04:31:12.209Z,15.73
2023-02-11T04:33:39.875Z,15.25
2023-02-11T04:36:08.356Z,14.23
2023-02-11T04:38:36.115Z,14.05
2023-02-11T04:41:03.694Z,15.18
2023-02-11T04:43:31.240Z,14.63
2023-02-11T04:46:00.423Z,12.73
2023-02-11T04:48:28.309Z,13.90
2023-02-11T04:50:55.868Z,13.52
2023-02-11T04:53:24.061Z,13.48
2023-02-11T04:55:52.448Z,15.85
2023-02-11T04:58:21.134Z,13.93
2023-02-11T05:00:48.851Z,14.60
2023-02-11T05:03:18.392Z,14.05
2023-02-11T05:05:46.356Z,15.52
2023-02-11T05:08:14.027Z,15.10
2023-02-11T05:10:41.767Z,15.45
2023-02-11T05:13:09.352Z,14.00
2023-02-11T05:15:36.883Z,16.00
2023-02-11T05:18:04.998Z,15.60
2023-02-11T05:20:33.931Z,14.93
2023-02-11T05:23:01.549Z,15.18
2023-02-11T05:25:29.560Z,14.90
2023-02-11T05:27:57.388Z,14.57
2023-02-11T05:30:25.289Z,14.20
2023-02-11T05:32:53.114Z,12.85
2023-02-11T05:35:20.743Z,14.57
2023-02-11T05:37:49.738Z,13.93
2023-02-11T05:40:17.737Z,13.77
2023-02-11T05:42:45.308Z,14.68
2023-02-11T05:45:13.042Z,13.63
2023-02-11T05:47:41.294Z,15.63
2023-02-11T05:50:09.301Z,15.07
2023-02-11T05:52:37.174Z,13.23
2023-02-11T05:55:07.220Z,14.50
2023-02-11T05:57:34.951Z,15.60
2023-02-11T06:00:02.524Z,15.15
2023-02-11T06:02:30.487Z,13.53
2023-02-11T06:04:58.385Z,14.05
2023-02-11T06:07:26.360Z,13.43
2023-02-11T06:09:54.129Z,13.90
2023-02-11T06:12:23.408Z,13.90
2023-02-11T06:14:51.414Z,13.83
2023-02-11T06:17:19.329Z,14.50
2023-02-11T06:19:47.065Z,13.57
2023-02-11T06:22:14.907Z,13.85
2023-02-11T06:25:00.464Z,15.43
2023-02-11T06:27:30.816Z,15.20
2023-02-11T06:29:58.619Z,13.27
2023-02-11T06:32:45.451Z,13.35
2023-02-11T06:35:15.070Z,14.18
2023-02-11T06:37:43.965Z,14.50
2023-02-11T06:40:12.538Z,13.63
2023-02-11T06:42:41.829Z,14.55
2023-02-11T06:45:11.235Z,14.40
2023-02-11T06:47:39.281Z,14.35
2023-02-11T06:50:09.405Z,15.00
2023-02-11T06:52:37.224Z,14.23
2023-02-11T06:55:05.460Z,15.30
2023-02-11T06:57:33.754Z,14.88
2023-02-11T07:00:03.109Z,14.68
2023-02-11T07:02:30.926Z,13.75
2023-02-11T07:04:58.573Z,13.23
2023-02-11T07:07:26.268Z,12.98
2023-02-11T07:09:53.919Z,14.98
2023-02-11T07:12:21.585Z,12.27
2023-02-11T07:14:49.563Z,13.82
2023-02-11T07:17:18.443Z,13.70
2023-02-11T07:19:46.366Z,16.65
2023-02-11T07:22:14.637Z,13.73
2023-02-11T07:24:42.774Z,13.10
2023-02-11T07:27:10.595Z,14.05
2023-02-11T07:29:39.434Z,12.87
2023-02-11T07:32:07.496Z,13.57
2023-02-11T07:34:36.961Z,16.35
2023-02-11T07:37:05.150Z,15.65
2023-02-11T07:39:33.615Z,15.48
2023-02-11T07:42:01.360Z,17.87
2023-02-11T07:44:29.152Z,17.77
2023-02-11T07:46:57.288Z,16.15
2023-02-11T07:49:25.370Z,17.38
2023-02-11T07:51:54.582Z,21.13
2023-02-11T07:54:22.444Z,16.57
2023-02-11T07:56:50.249Z,16.30
2023-02-11T07:59:19.597Z,12.85
2023-02-11T08:01:48.074Z,13.32
2023-02-11T08:04:15.784Z,15.35
2023-02-11T08:06:44.251Z,13.60
2023-02-11T08:09:17.556Z,14.25
2023-02-11T08:11:45.940Z,13.93
2023-02-11T08:14:13.684Z,12.90
2023-02-11T08:16:44.518Z,13.68
2023-02-11T08:19:14.847Z,13.97
2023-02-11T08:21:43.287Z,16.80
2023-02-11T08:24:12.856Z,17.13
2023-02-11T08:26:40.994Z,15.15
2023-02-11T08:29:11.557Z,14.18
2023-02-11T08:31:42.307Z,14.53
2023-02-11T08:34:11.469Z,13.45
2023-02-11T08:36:41.565Z,13.30
2023-02-11T08:39:19.174Z,14.50
2023-02-11T08:41:51.256Z,14.85
2023-02-11T08:44:19.411Z,14.70
2023-02-11T08:46:47.362Z,16.10
2023-02-11T08:49:15.312Z,18.92
2023-02-11T08:51:43.559Z,18.02
2023-02-11T08:54:11.433Z,16.13
2023-02-11T08:56:40.506Z,14.90
2023-02-11T08:59:10.112Z,15.10
2023-02-11T09:01:38.638Z,13.05
2023-02-11T09:04:06.535Z,14.15
2023-02-11T09:06:34.098Z,13.82
2023-02-11T09:09:01.660Z,15.77
2023-02-11T09:11:31.712Z,15.02
2023-02-11T09:13:59.773Z,14.63
2023-02-11T09:16:30.774Z,25.60
2023-02-11T09:18:59.056Z,20.00
2023-02-11T09:21:27.308Z,16.37
2023-02-11T09:23:55.346Z,14.75
2023-02-11T09:26:24.700Z,16.77
2023-02-11T09:28:52.390Z,17.80
2023-02-11T09:31:22.321Z,16.10
2023-02-11T09:33:53.693Z,17.07
2023-02-11T09:36:23.977Z,18.83
2023-02-11T09:38:52.108Z,15.80
2023-02-11T09:41:34.319Z,15.70
2023-02-11T09:44:05.533Z,16.25
2023-02-11T09:46:38.990Z,17.17
2023-02-11T09:49:10.519Z,16.30
2023-02-11T09:51:45.733Z,15.10
2023-02-11T09:54:25.930Z,15.63
2023-02-11T09:56:53.712Z,14.68
2023-02-11T09:59:21.692Z,13.67
2023-02-11T10:01:54.600Z,13.75
2023-02-11T10:04:38.850Z,14.35
2023-02-11T10:07:16.882Z,14.20
2023-02-11T10:09:58.720Z,12.77
2023-02-11T10:12:49.746Z,12.77
2023-02-11T10:15:25.837Z,12.63
2023-02-11T10:18:06.863Z,12.25
2023-02-11T10:20:39.001Z,12.68
2023-02-11T10:23:15.109Z,12.88
2023-02-11T10:25:52.831Z,11.60
2023-02-11T10:28:24.793Z,11.93
2023-02-11T10:30:59.578Z,11.38
2023-02-11T10:33:31.561Z,11.95
2023-02-11T10:36:01.498Z,12.15
2023-02-11T10:38:36.547Z,12.43
2023-02-11T10:41:04.326Z,12.38
2023-02-11T10:43:36.103Z,11.40
2023-02-11T10:46:06.598Z,11.25
2023-02-11T10:48:41.322Z,11.48
2023-02-11T10:51:18.515Z,11.50
2023-02-11T10:53:46.783Z,11.73
2023-02-11T10:56:23.171Z,11.23
2023-02-11T10:58:59.062Z,11.20
2023-02-11T11:01:45.049Z,10.95
2023-02-11T11:04:36.455Z,14.07
2023-02-11T11:07:21.769Z,13.38
2023-02-11T11:09:52.791Z,12.43
2023-02-11T11:12:30.238Z,14.85
2023-02-11T11:15:00.038Z,12.68
2023-02-11T11:17:29.410Z,13.70
2023-02-11T11:20:16.961Z,15.00
2023-02-11T11:22:46.356Z,15.07
2023-02-11T11:25:29.321Z,15.77
2023-02-11T11:27:59.218Z,14.38
2023-02-11T11:30:32.759Z,12.70
2023-02-11T11:33:02.071Z,12.65
2023-02-11T11:35:33.000Z,12.20
2023-02-11T11:38:04.267Z,13.07
2023-02-11T11:40:33.735Z,12.07
2023-02-11T11:43:07.813Z,12.63
2023-02-11T11:45:35.381Z,13.65
2023-02-11T11:48:10.828Z,13.23
2023-02-11T11:50:42.814Z,14.27
2023-02-11T11:53:19.782Z,13.70
2023-02-11T11:55:52.264Z,12.93
2023-02-11T11:58:22.614Z,12.50
2023-02-11T12:00:57.150Z,15.32
2023-02-11T12:04:02.506Z,14.63
2023-02-11T12:06:41.002Z,14.00
2023-02-11T12:09:21.275Z,11.90
2023-02-11T12:12:17.756Z,12.65
2023-02-11T12:14:55.044Z,12.05
2023-02-11T12:17:36.542Z,11.82
2023-02-11T12:20:26.248Z,12.57
2023-02-11T12:23:02.838Z,13.40
2023-02-11T12:25:41.673Z,11.57
2023-02-11T12:28:22.977Z,12.93
2023-02-11T12:31:04.033Z,13.40
2023-02-11T12:33:51.264Z,12.55
2023-02-11T12:36:33.487Z,10.90
2023-02-11T12:39:19.848Z,11.90
2023-02-11T12:42:21.086Z,12.05
2023-02-11T12:45:05.017Z,11.82
2023-02-11T12:47:42.253Z,11.05
2023-02-11T12:50:17.104Z,11.23
2023-02-11T12:52:59.504Z,12.10
2023-02-11T12:55:30.489Z,12.70
2023-02-11T12:58:01.297Z,13.23
2023-02-11T13:00:37.658Z,11.82
2023-02-11T13:03:12.054Z,11.73
2023-02-11T13:05:44.148Z,11.70
2023-02-11T13:08:18.829Z,11.93
2023-02-11T13:10:54.044Z,12.57
2023-02-11T13:13:27.574Z,12.85
2023-02-11T13:16:01.076Z,12.13
2023-02-11T13:18:44.754Z,12.88
2023-02-11T13:21:31.064Z,13.60
2023-02-11T13:24:13.132Z,10.40
2023-02-11T13:26:46.478Z,11.52
2023-02-11T13:29:28.598Z,10.23
2023-02-11T13:31:57.237Z,10.40
2023-02-11T13:34:27.091Z,10.82
2023-02-11T13:36:56.912Z,11.75
2023-02-11T13:39:27.118Z,11.65
2023-02-11T13:42:07.474Z,12.13
2023-02-11T13:44:39.382Z,12.18
2023-02-11T13:47:27.292Z,12.70
2023-02-11T13:49:54.856Z,11.77
2023-02-11T13:52:26.885Z,11.15
2023-02-11T13:54:56.820Z,10.63
2023-02-11T13:57:41.122Z,9.90
2023-02-11T14:00:51.171Z,12.95
2023-02-11T14:03:46.849Z,11.00
2023-02-11T14:06:35.288Z,11.93
2023-02-11T14:09:31.304Z,11.30
2023-02-11T14:12:25.081Z,12.48
2023-02-11T14:15:19.098Z,12.18
2023-02-11T14:17:47.190Z,13.07
2023-02-11T14:20:43.968Z,12.10
2023-02-11T14:23:25.742Z,12.23
2023-02-11T14:26:05.070Z,10.45
2023-02-11T14:28:34.569Z,9.52
2023-02-11T14:31:11.252Z,11.57
2023-02-11T14:34:00.752Z,12.07
2023-02-11T14:36:59.942Z,11.80
2023-02-11T14:39:40.922Z,11.35
2023-02-11T14:42:18.859Z,11.57
2023-02-11T14:44:49.581Z,10.85
2023-02-11T14:47:20.757Z,10.88
2023-02-11T14:49:50.573Z,10.87
2023-02-11T14:52:28.315Z,11.10
2023-02-11T14:55:14.736Z,12.30
2023-02-11T14:57:44.466Z,11.93
2023-02-11T15:00:19.035Z,10.85
2023-02-11T15:02:46.651Z,11.17
2023-02-11T15:05:20.048Z,12.27
2023-02-11T15:07:52.635Z,11.18
2023-02-11T15:10:27.874Z,11.32
2023-02-11T15:12:56.156Z,11.18
2023-02-11T15:15:23.942Z,10.57
2023-02-11T15:17:51.946Z,11.85
2023-02-11T15:20:23.029Z,12.63
2023-02-11T15:22:57.417Z,11.93
2023-02-11T15:25:25.870Z,14.43
2023-02-11T15:27:56.540Z,13.67
2023-02-11T15:30:30.557Z,15.98
2023-02-11T15:33:00.273Z,15.10
2023-02-11T15:35:30.952Z,12.77
2023-02-11T15:38:01.343Z,14.80
2023-02-11T15:40:32.617Z,14.33
2023-02-11T15:43:02.631Z,12.23
2023-02-11T15:45:32.895Z,11.85
2023-02-11T15:48:09.107Z,12.80
2023-02-11T15:50:38.373Z,12.80
2023-02-11T15:53:23.987Z,12.87
2023-02-11T15:55:54.048Z,13.55
2023-02-11T15:58:23.653Z,13.82
2023-02-11T16:00:54.822Z,11.90
2023-02-11T16:03:24.840Z,13.60
2023-02-11T16:05:52.931Z,12.13
2023-02-11T16:08:25.590Z,13.40
2023-02-11T16:10:58.665Z,13.05
2023-02-11T16:13:28.357Z,12.57
2023-02-11T16:16:00.972Z,13.48
2023-02-11T16:18:38.994Z,15.00
2023-02-11T16:21:14.346Z,13.73
2023-02-11T16:23:43.920Z,13.48
2023-02-11T16:26:23.807Z,13.05
2023-02-11T16:28:51.980Z,13.80
2023-02-11T16:31:19.962Z,14.20
2023-02-11T16:33:47.602Z,14.68
2023-02-11T16:36:18.167Z,14.65
2023-02-11T16:38:47.534Z,14.80
2023-02-11T16:41:15.201Z,13.50
2023-02-11T16:43:42.728Z,14.00
2023-02-11T16:46:15.016Z,16.20
2023-02-11T16:48:43.193Z,15.80
2023-02-11T16:51:13.607Z,16.17
2023-02-11T16:53:41.495Z,16.10
2023-02-11T16:56:16.535Z,15.00
2023-02-11T16:58:44.359Z,14.25
2023-02-11T17:01:14.117Z,14.38
2023-02-11T17:03:43.489Z,16.02
2023-02-11T17:06:12.722Z,15.35
2023-02-11T17:08:41.401Z,17.23
2023-02-11T17:11:09.152Z,16.85
2023-02-11T17:13:39.799Z,15.75
2023-02-11T17:16:12.403Z,16.38
2023-02-11T17:18:40.245Z,17.90
2023-02-11T17:21:08.461Z,15.73
2023-02-11T17:23:36.114Z,13.88
2023-02-11T17:26:03.805Z,13.68
2023-02-11T17:28:32.658Z,14.00
2023-02-11T17:31:02.394Z,13.20
2023-02-11T17:33:29.969Z,15.23
2023-02-11T17:35:57.667Z,14.18
2023-02-11T17:38:25.404Z,13.65
2023-02-11T17:40:59.931Z,14.15
2023-02-11T17:43:27.926Z,12.80
2023-02-11T17:45:55.847Z,14.07
2023-02-11T17:48:24.862Z,13.95
2023-02-11T17:50:53.213Z,14.32
2023-02-11T17:53:20.997Z,14.90
2023-02-11T17:55:49.630Z,17.10
2023-02-11T17:58:17.648Z,17.63
2023-02-11T18:00:45.356Z,15.18
2023-02-11T18:03:12.891Z,16.80
2023-02-11T18:05:42.202Z,18.17
2023-02-11T18:08:12.480Z,15.75
2023-02-11T18:10:42.357Z,15.23
2023-02-11T18:13:09.913Z,15.48
2023-02-11T18:15:37.635Z,16.55
2023-02-11T18:18:05.379Z,15.82
2023-02-11T18:20:33.408Z,15.07
2023-02-11T18:23:02.516Z,16.40
2023-02-11T18:25:31.001Z,16.63
2023-02-11T18:27:58.688Z,16.00
2023-02-11T18:30:29.562Z,16.13
2023-02-11T18:32:57.590Z,16.80
2023-02-11T18:35:27.952Z,16.87
2023-02-11T18:37:55.639Z,17.45
2023-02-11T18:40:24.829Z,18.13
2023-02-11T18:42:52.316Z,17.98
2023-02-11T18:45:20.105Z,16.35
2023-02-11T18:47:47.639Z,17.40
2023-02-11T18:50:18.739Z,16.95
2023-02-11T18:52:46.297Z,18.70
2023-02-11T18:55:15.402Z,15.95
2023-02-11T18:57:44.468Z,16.77
2023-02-11T19:00:13.197Z,16.90
2023-02-11T19:02:42.327Z,14.85
2023-02-11T19:05:11.530Z,17.63
2023-02-11T19:07:39.336Z,20.80
2023-02-11T19:10:08.710Z,19.08
2023-02-11T19:12:39.082Z,18.60
2023-02-11T19:15:09.872Z,17.98
2023-02-11T19:17:39.489Z,17.30
2023-02-11T19:20:08.859Z,15.60
2023-02-11T19:22:36.917Z,13.85
2023-02-11T19:25:05.105Z,14.70
2023-02-11T19:27:33.164Z,15.43
2023-02-11T19:30:01.582Z,14.55
2023-02-11T19:32:31.242Z,15.73
2023-02-11T19:34:59.124Z,16.52
2023-02-11T19:37:27.129Z,17.10
2023-02-11T19:39:54.959Z,16.90
2023-02-11T19:42:22.738Z,17.75
2023-02-11T19:44:50.808Z,18.02
2023-02-11T19:47:19.376Z,18.67
2023-02-11T19:49:48.847Z,17.43
2023-02-11T19:52:16.899Z,17.10
2023-02-11T19:54:44.733Z,17.60
2023-02-11T19:57:12.296Z,18.63
2023-02-11T19:59:40.661Z,19.27
2023-02-11T20:02:08.516Z,18.03
2023-02-11T20:04:36.357Z,15.82
2023-02-11T20:07:06.234Z,16.90
2023-02-11T20:09:34.374Z,16.48
2023-02-11T20:12:02.221Z,14.80
2023-02-11T20:14:30.316Z,14.77
2023-02-11T20:16:58.093Z,14.18
2023-02-11T20:19:25.914Z,14.43
2023-02-11T20:21:56.824Z,14.55
2023-02-11T20:24:27.074Z,15.18
2023-02-11T20:26:56.425Z,14.20
2023-02-11T20:29:26.040Z,14.98
2023-02-11T20:31:53.873Z,17.40
2023-02-11T20:34:22.345Z,19.02
2023-02-11T20:36:52.768Z,21.17
2023-02-11T20:39:22.739Z,18.27
2023-02-11T20:41:53.648Z,18.17
2023-02-11T20:44:23.070Z,15.63
2023-02-11T20:46:51.665Z,16.70
2023-02-11T20:49:21.767Z,16.00
2023-02-11T20:51:49.889Z,14.10
2023-02-11T20:54:20.049Z,15.25
2023-02-11T20:56:49.924Z,14.25
2023-02-11T20:59:21.068Z,13.65
2023-02-11T21:01:50.864Z,12.82
2023-02-11T21:04:20.821Z,12.23
2023-02-11T21:06:52.122Z,11.55
2023-02-11T21:09:22.066Z,12.65
2023-02-11T21:11:51.758Z,14.25
2023-02-11T21:14:22.655Z,15.15
2023-02-11T21:16:50.997Z,14.80
2023-02-11T21:19:18.807Z,13.25
2023-02-11T21:21:46.888Z,12.93
2023-02-11T21:24:14.842Z,14.63
2023-02-11T21:26:43.071Z,15.18
2023-02-11T21:29:11.585Z,16.23
2023-02-11T21:31:41.551Z,15.35
2023-02-11T21:34:09.716Z,14.90
2023-02-11T21:36:38.160Z,14.80
2023-02-11T21:39:06.126Z,14.60
2023-02-11T21:41:35.052Z,14.50
2023-02-11T21:44:03.154Z,14.32
2023-02-11T21:46:31.394Z,14.52
2023-02-11T21:49:01.287Z,11.35
2023-02-11T21:51:29.432Z,13.27
2023-02-11T21:53:59.033Z,14.93
2023-02-11T21:56:28.335Z,13.82
2023-02-11T21:58:58.226Z,13.65
2023-02-11T22:01:28.596Z,13.32
2023-02-11T22:03:56.886Z,13.45
2023-02-11T22:06:28.311Z,13.07
2023-02-11T22:08:56.690Z,12.38
2023-02-11T22:11:25.390Z,13.15
2023-02-11T22:13:55.536Z,15.68
2023-02-11T22:16:24.031Z,14.18
2023-02-11T22:18:52.608Z,13.57
2023-02-11T22:21:23.233Z,15.13
2023-02-11T22:23:52.847Z,13.38
2023-02-11T22:26:22.405Z,15.55
2023-02-11T22:28:51.162Z,14.45
2023-02-11T22:31:21.753Z,15.97
2023-02-11T22:33:49.875Z,13.43
2023-02-11T22:36:20.686Z,15.68
2023-02-11T22:38:49.331Z,14.88
2023-02-11T22:41:20.027Z,14.93
2023-02-11T22:43:48.749Z,14.87
2023-02-11T22:46:18.312Z,15.98
2023-02-11T22:48:46.817Z,15.25
2023-02-11T22:51:17.783Z,15.73
2023-02-11T22:53:45.778Z,15.95
2023-02-11T22:56:15.843Z,15.13
2023-02-11T22:58:45.636Z,17.08
2023-02-11T23:01:14.216Z,17.58
2023-02-11T23:03:42.783Z,18.10
2023-02-11T23:06:11.973Z,17.95
2023-02-11T23:08:42.812Z,15.40
2023-02-11T23:11:14.115Z,15.43
2023-02-11T23:13:43.728Z,14.90
2023-02-11T23:16:16.598Z,15.77
2023-02-11T23:18:45.767Z,16.90
2023-02-11T23:21:16.596Z,14.57
2023-02-11T23:23:45.431Z,13.80
2023-02-11T23:26:14.979Z,12.98
2023-02-11T23:28:46.051Z,14.77
2023-02-11T23:31:18.891Z,14.05
2023-02-11T23:33:47.924Z,14.20
2023-02-11T23:36:16.463Z,14.32
2023-02-11T23:38:44.735Z,13.75
2023-02-11T23:41:13.796Z,14.57
2023-02-11T23:43:42.271Z,14.52
2023-02-11T23:46:10.865Z,14.13
2023-02-11T23:48:41.162Z,13.68
2023-02-11T23:51:11.013Z,14.18
2023-02-11T23:53:39.410Z,13.93
2023-02-11T23:56:08.975Z,13.80
2023-02-11T23:58:38.074Z,14.23
